Time;durP1;ratioP1;P1;durP2;ratioP2;P2;SDS_P1;SDS_P2;PMS_P1;PMS_P2;Temp;Humidity;BMP_temperature;BMP_pressure;BME280_temperature;BME280_humidity;BME280_pressure;Samples;Min_cycle;Max_cycle;Signal;HPM_P1;HPM_P2
2024/03/12 00:00:17;;;;;;;;;;;;;;;;;;4981341;28;19933;-69
2024/03/12 00:02:45;;;;;;;;;;;;;;;;;;4974821;28;19928;-69
2024/03/12 00:05:11;;;;;;;;;;;;;;;;;;4976287;28;19917;-70
2024/03/12 00:07:46;;;;;;;;;;;;;;;;;;4970926;28;19924;-70
2024/03/12 00:10:16;;;;;;;;;;;;;;;;;;4974716;28;19964;-69
2024/03/12 00:12:43;;;;;;;;;;;;;;;;;;4958429;28;19922;-70
2024/03/12 00:15:09;;;;;;;;;;;;;;;;;;4981945;28;19924;-70
2024/03/12 00:17:37;;;;;;;;;;;;;;;;;;4973453;28;20188;-69
2024/03/12 00:20:15;;;;;;;;;;;;;;;;;;4981497;28;21636;-70
2024/03/12 00:22:43;;;;;;;;;;;;;;;;;;4980202;28;19928;-69
2024/03/12 00:25:08;;;;;;;;;;;;;;;;;;4977645;28;19917;-69
2024/03/12 00:27:33;;;;;;;;;;;;;;;;;;4970383;28;20374;-69
2024/03/12 00:29:59;;;;;;;;;;;;;;;;;;4972099;28;19918;-69
2024/03/12 00:32:24;;;;;;;;;;;;;;;;;;4979759;28;20047;-70
2024/03/12 00:34:50;;;;;;;;;;;;;;;;;;4973485;28;20554;-69
2024/03/12 00:37:15;;;;;;;;;;;;;;;;;;4973917;28;20071;-71
2024/03/12 00:39:41;;;;;;;;;;;;;;;;;;4973236;28;19922;-71
2024/03/12 00:42:06;;;;;;;;;;;;;;;;;;4986757;28;20314;-71
2024/03/12 00:44:32;;;;;;;;;;;;;;;;;;4979483;28;20559;-71
2024/03/12 00:46:57;;;;;;;;;;;;;;;;;;4980609;28;19949;-70
2024/03/12 00:49:22;;;;;;;;;;;;;;;;;;4974624;28;19987;-71
2024/03/12 00:51:51;;;;;;;;;;;;;;;;;;4979068;28;20404;-69
2024/03/12 00:54:17;;;;;;;;;;;;;;;;;;4970042;28;19922;-70
2024/03/12 00:56:42;;;;;;;;;;;;;;;;;;4967640;28;19947;-70
2024/03/12 00:59:11;;;;;;;;;;;;;;;;;;4973384;28;19918;-70
2024/03/12 01:01:37;;;;;;;;;;;;;;;;;;4981841;28;20076;-69
2024/03/12 01:04:03;;;;;;;;;;;;;;;;;;4981041;28;19929;-69
2024/03/12 01:06:28;;;;;;;;;;;;;;;;;;4972035;28;20012;-72
2024/03/12 01:08:55;;;;;;;;;;;;;;;;;;4972238;28;20269;-69
2024/03/12 01:11:21;;;;;;;;;;;;;;;;;;4975071;28;19918;-69
2024/03/12 01:13:53;;;;;;;;;;;;;;;;;;4973367;28;19918;-68
2024/03/12 01:16:18;;;;;;;;;;;;;;;;;;4973503;28;20574;-68
2024/03/12 01:18:49;;;;;;;;;;;;;;;;;;4973585;28;20416;-69
2024/03/12 01:21:14;;;;;;;;;;;;;;;;;;4975609;28;20625;-69
2024/03/12 01:23:43;;;;;;;;;;;;;;;;;;4975743;28;20586;-69
2024/03/12 01:26:08;;;;;;;;;;;;;;;;;;4972967;28;20573;-69
2024/03/12 01:28:34;;;;;;;;;;;;;;;;;;4974075;28;19968;-69
2024/03/12 01:31:00;;;;;;;;;;;;;;;;;;4977128;28;19918;-68
2024/03/12 01:33:28;;;;;;;;;;;;;;;;;;4983888;28;19922;-68
2024/03/12 01:36:05;;;;;;;;;;;;;;;;;;4975311;28;19926;-68
2024/03/12 01:38:34;;;;;;;;;;;;;;;;;;4975014;28;20008;-68
2024/03/12 01:40:59;;;;;;;;;;;;;;;;;;4966907;28;20023;-67
2024/03/12 01:43:27;;;;;;;;;;;;;;;;;;4954100;28;20325;-68
2024/03/12 01:45:53;;;;;;;;;;;;;;;;;;4977681;28;19922;-67
2024/03/12 01:48:22;;;;;;;;;;;;;;;;;;4975105;28;19918;-68
2024/03/12 01:50:47;;;;;;;;;;;;;;;;;;4977050;28;20440;-68
2024/03/12 01:53:16;;;;;;;;;;;;;;;;;;4975866;28;20242;-69
2024/03/12 01:55:44;;;;;;;;;;;;;;;;;;4981653;28;19944;-68
2024/03/12 02:01:27;;;;;;;;;;;;;;;;;;4973824;28;20132;-68
2024/03/12 02:03:56;;;;;;;;;;;;;;;;;;4974230;28;19929;-68
2024/03/12 02:06:27;;;;;;;;;;;;;;;;;;4978107;28;20384;-68
2024/03/12 02:08:55;;;;;;;;;;;;;;;;;;4973811;28;19940;-68
2024/03/12 02:11:20;;;;;;;;;;;;;;;;;;4975649;28;19960;-68
2024/03/12 02:13:46;;;;;;;;;;;;;;;;;;4974870;28;20024;-68
2024/03/12 02:16:11;;;;;;;;;;;;;;;;;;4979209;28;19921;-69
2024/03/12 02:18:39;;;;;;;;;;;;;;;;;;4983526;28;19944;-69
2024/03/12 02:21:05;;;;;;;;;;;;;;;;;;4976231;28;19929;-68
2024/03/12 02:23:32;;;;;;;;;;;;;;;;;;4980898;28;19969;-68
2024/03/12 02:25:58;;;;;;;;;;;;;;;;;;4969441;28;20289;-68
2024/03/12 02:28:23;;;;;;;;;;;;;;;;;;4973932;28;19922;-68
2024/03/12 02:30:49;;;;;;;;;;;;;;;;;;4973236;28;19929;-68
2024/03/12 02:33:17;;;;;;;;;;;;;;;;;;4975659;28;19921;-68
2024/03/12 02:35:42;;;;;;;;;;;;;;;;;;4977029;28;20366;-69
2024/03/12 02:38:10;;;;;;;;;;;;;;;;;;4973663;28;20370;-67
2024/03/12 02:43:52;;;;;;;;;;;;;;;;;;4969510;28;19933;-67
2024/03/12 02:46:18;;;;;;;;;;;;;;;;;;4982895;28;19922;-67
2024/03/12 02:48:48;;;;;;;;;;;;;;;;;;4982867;28;20495;-67
2024/03/12 02:51:16;;;;;;;;;;;;;;;;;;4982217;28;19918;-67
2024/03/12 02:53:41;;;;;;;;;;;;;;;;;;4961203;28;19928;-68
2024/03/12 02:56:09;;;;;;;;;;;;;;;;;;4966224;28;20365;-68
2024/03/12 02:58:39;;;;;;;;;;;;;;;;;;4974854;28;19922;-68
2024/03/12 03:01:04;;;;;;;;;;;;;;;;;;4973943;28;20261;-68
2024/03/12 03:03:30;;;;;;;;;;;;;;;;;;4982429;28;19932;-68
2024/03/12 03:05:55;;;;;;;;;;;;;;;;;;4982631;28;19947;-67
2024/03/12 03:08:23;;;;;;;;;;;;;;;;;;4967276;28;20269;-67
2024/03/12 03:10:48;;;;;;;;;;;;;;;;;;4975351;28;20008;-67
2024/03/12 03:13:19;;;;;;;;;;;;;;;;;;4982030;28;20400;-67
2024/03/12 03:15:46;;;;;;;;;;;;;;;;;;4975044;28;19918;-69
2024/03/12 03:18:15;;;;;;;;;;;;;;;;;;4980962;28;19922;-67
2024/03/12 03:20:42;;;;;;;;;;;;;;;;;;4975496;28;20345;-67
2024/03/12 03:23:08;;;;;;;;;;;;;;;;;;4980659;28;19931;-67
2024/03/12 03:25:33;;;;;;;;;;;;;;;;;;4968352;28;19980;-67
2024/03/12 03:27:58;;;;;;;;;;;;;;;;;;4974362;28;20365;-67
2024/03/12 03:30:26;;;;;;;;;;;;;;;;;;4972027;28;19922;-68
2024/03/12 03:32:54;;;;;;;;;;;;;;;;;;4974099;28;19979;-68
2024/03/12 03:41:57;;;;;;;;;;;;;;;;;;4974539;28;19933;-68
2024/03/12 03:44:29;;;;;;;;;;;;;;;;;;4975097;28;19922;-68
2024/03/12 03:46:57;;;;;;;;;;;;;;;;;;4975899;28;19917;-69
2024/03/12 03:49:22;;;;;;;;;;;;;;;;;;4965766;28;20263;-68
2024/03/12 03:51:51;;;;;;;;;;;;;;;;;;4979721;28;19923;-69
2024/03/12 03:54:16;;;;;;;;;;;;;;;;;;4963302;28;20539;-70
2024/03/12 03:56:45;;;;;;;;;;;;;;;;;;4963984;28;21473;-68
2024/03/12 03:59:13;;;;;;;;;;;;;;;;;;4975946;28;19921;-68
2024/03/12 04:01:39;;;;;;;;;;;;;;;;;;4980308;28;20008;-68
2024/03/12 04:04:18;;;;;;;;;;;;;;;;;;4973476;28;20336;-68
2024/03/12 04:06:46;;;;;;;;;;;;;;;;;;4974961;28;19918;-68
2024/03/12 04:09:15;;;;;;;;;;;;;;;;;;4971999;28;19924;-69
2024/03/12 04:11:40;;;;;;;;;;;;;;;;;;4975094;28;19922;-68
2024/03/12 04:14:11;;;;;;;;;;;;;;;;;;4980272;28;19976;-68
2024/03/12 04:16:42;;;;;;;;;;;;;;;;;;4970855;28;19941;-68
2024/03/12 04:19:07;;;;;;;;;;;;;;;;;;4959957;28;19932;-67
2024/03/12 04:21:32;;;;;;;;;;;;;;;;;;4974644;28;19922;-68
2024/03/12 04:24:00;;;;;;;;;;;;;;;;;;4965064;28;19928;-68
2024/03/12 04:26:28;;;;;;;;;;;;;;;;;;4980988;28;19921;-68
2024/03/12 04:28:54;;;;;;;;;;;;;;;;;;4979246;28;20049;-68
2024/03/12 04:31:25;;;;;;;;;;;;;;;;;;4971434;28;19921;-68
2024/03/12 04:33:52;;;;;;;;;;;;;;;;;;4973245;28;20169;-67
2024/03/12 04:36:22;;;;;;;;;;;;;;;;;;4974972;28;21446;-68
2024/03/12 04:38:51;;;;;;;;;;;;;;;;;;4969160;28;20013;-67
2024/03/12 04:41:22;;;;;;;;;;;;;;;;;;4947505;28;20912;-67
2024/03/12 04:43:47;;;;;;;;;;;;;;;;;;4980339;28;20385;-67
2024/03/12 04:49:29;;;;;;;;;;;;;;;;;;4969630;28;19960;-66
2024/03/12 04:51:55;;;;;;;;;;;;;;;;;;4952173;28;20028;-66
2024/03/12 04:54:20;;;;;;;;;;;;;;;;;;4976692;28;19921;-67
2024/03/12 04:56:46;;;;;;;;;;;;;;;;;;4973144;28;20005;-68
2024/03/12 04:59:11;;;;;;;;;;;;;;;;;;4980189;28;19928;-68
2024/03/12 05:01:37;;;;;;;;;;;;;;;;;;4973079;28;20318;-68
2024/03/12 05:04:02;;;;;;;;;;;;;;;;;;4980583;28;20257;-68
2024/03/12 05:06:27;;;;;;;;;;;;;;;;;;4963351;28;19922;-67
2024/03/12 05:08:55;;;;;;;;;;;;;;;;;;4973730;28;19967;-66
2024/03/12 05:11:21;;;;;;;;;;;;;;;;;;4981674;28;19918;-68
2024/03/12 05:13:46;;;;;;;;;;;;;;;;;;4979145;28;19923;-68
2024/03/12 05:16:16;;;;;;;;;;;;;;;;;;4973464;28;19925;-68
2024/03/12 05:18:44;;;;;;;;;;;;;;;;;;4972573;28;19928;-67
2024/03/12 05:21:09;;;;;;;;;;;;;;;;;;4974417;28;19921;-67
2024/03/12 05:23:35;;;;;;;;;;;;;;;;;;4963789;28;20652;-67
2024/03/12 05:26:01;;;;;;;;;;;;;;;;;;4973070;28;19926;-67
2024/03/12 05:28:31;;;;;;;;;;;;;;;;;;4980321;28;19932;-67
2024/03/12 05:30:58;;;;;;;;;;;;;;;;;;4974299;28;19969;-68
2024/03/12 05:33:28;;;;;;;;;;;;;;;;;;4972578;28;19917;-67
2024/03/12 05:35:56;;;;;;;;;;;;;;;;;;4965115;28;19921;-67
2024/03/12 05:41:25;;;;;;;;;;;;;;;;;;4972790;28;20537;-67
2024/03/12 05:49:19;;;;;;;;;;;;;;;;;;4973213;28;19929;-67
2024/03/12 05:51:47;;;;;;;;;;;;;;;;;;4974932;28;19957;-66
2024/03/12 05:54:12;;;;;;;;;;;;;;;;;;4970609;28;20009;-67
2024/03/12 05:56:40;;;;;;;;;;;;;;;;;;4964065;28;20401;-67
2024/03/12 05:59:07;;;;;;;;;;;;;;;;;;4980257;28;19917;-69
2024/03/12 06:01:32;;;;;;;;;;;;;;;;;;4974533;28;19926;-71
2024/03/12 06:03:58;;;;;;;;;;;;;;;;;;4971158;28;19924;-66
2024/03/12 06:06:23;;;;;;;;;;;;;;;;;;4973026;28;19921;-68
2024/03/12 06:08:51;;;;;;;;;;;;;;;;;;4976085;28;20037;-66
2024/03/12 06:11:16;;;;;;;;;;;;;;;;;;4967615;28;19929;-67
2024/03/12 06:13:45;;;;;;;;;;;;;;;;;;4976876;28;20009;-66
2024/03/12 06:16:11;;;;;;;;;;;;;;;;;;4976221;28;20076;-67
2024/03/12 06:18:36;;;;;;;;;;;;;;;;;;4973705;28;20059;-66
2024/03/12 06:21:01;;;;;;;;;;;;;;;;;;4981875;28;19956;-67
2024/03/12 06:23:27;;;;;;;;;;;;;;;;;;4972928;28;19932;-67
2024/03/12 06:25:55;;;;;;;;;;;;;;;;;;4976862;28;19918;-68
2024/03/12 06:28:21;;;;;;;;;;;;;;;;;;4983410;28;20386;-67
2024/03/12 06:30:47;;;;;;;;;;;;;;;;;;4982413;28;19918;-69
2024/03/12 06:33:17;;;;;;;;;;;;;;;;;;4967138;28;19925;-67
2024/03/12 06:35:48;;;;;;;;;;;;;;;;;;4978053;28;20253;-67
2024/03/12 06:38:16;;;;;;;;;;;;;;;;;;4966056;28;20622;-68
2024/03/12 06:40:41;;;;;;;;;;;;;;;;;;4977701;28;20462;-68
2024/03/12 06:43:09;;;;;;;;;;;;;;;;;;4981907;28;20357;-69
2024/03/12 06:45:35;;;;;;;;;;;;;;;;;;4976613;28;19965;-69
2024/03/12 06:48:02;;;;;;;;;;;;;;;;;;4976617;28;19922;-70
2024/03/12 06:50:28;;;;;;;;;;;;;;;;;;4975850;28;19969;-69
2024/03/12 06:52:53;;;;;;;;;;;;;;;;;;4983157;28;20357;-68
2024/03/12 06:55:23;;;;;;;;;;;;;;;;;;4982493;28;21535;-68
2024/03/12 06:57:49;;;;;;;;;;;;;;;;;;4967203;28;19917;-67
2024/03/12 07:00:14;;;;;;;;;;;;;;;;;;4982104;28;19946;-68
2024/03/12 07:02:40;;;;;;;;;;;;;;;;;;4984230;28;20329;-67
2024/03/12 07:05:09;;;;;;;;;;;;;;;;;;4977737;28;20298;-68
2024/03/12 07:07:35;;;;;;;;;;;;;;;;;;4975788;28;19917;-68
2024/03/12 07:10:03;;;;;;;;;;;;;;;;;;4976322;28;19925;-68
2024/03/12 07:12:32;;;;;;;;;;;;;;;;;;4982820;28;19996;-69
2024/03/12 07:15:00;;;;;;;;;;;;;;;;;;4974680;28;19922;-68
2024/03/12 07:17:27;;;;;;;;;;;;;;;;;;4975706;28;20005;-70
2024/03/12 07:19:53;;;;;;;;;;;;;;;;;;4981999;28;19924;-69
2024/03/12 07:22:18;;;;;;;;;;;;;;;;;;4982080;28;20364;-69
2024/03/12 07:24:43;;;;;;;;;;;;;;;;;;4954072;28;19952;-70
2024/03/12 07:27:09;;;;;;;;;;;;;;;;;;4990751;28;19918;-71
2024/03/12 07:29:34;;;;;;;;;;;;;;;;;;4976026;28;20409;-69
2024/03/12 07:32:01;;;;;;;;;;;;;;;;;;4966956;28;20072;-69
2024/03/12 07:34:26;;;;;;;;;;;;;;;;;;4982356;28;20482;-69
2024/03/12 07:36:52;;;;;;;;;;;;;;;;;;4975704;28;19918;-69
2024/03/12 07:39:31;;;;;;;;;;;;;;;;;;4982351;28;19964;-69
2024/03/12 07:41:57;;;;;;;;;;;;;;;;;;4972136;28;20345;-68
2024/03/12 07:44:23;;;;;;;;;;;;;;;;;;4972928;28;19930;-69
2024/03/12 07:46:48;;;;;;;;;;;;;;;;;;4982969;28;19936;-68
2024/03/12 07:49:20;;;;;;;;;;;;;;;;;;4982462;28;19928;-69
2024/03/12 07:51:46;;;;;;;;;;;;;;;;;;4975595;28;19917;-69
2024/03/12 07:54:11;;;;;;;;;;;;;;;;;;4966934;28;19940;-69
2024/03/12 07:56:37;;;;;;;;;;;;;;;;;;4978149;28;19925;-68
2024/03/12 07:59:04;;;;;;;;;;;;;;;;;;4975973;28;20064;-69
2024/03/12 08:01:33;;;;;;;;;;;;;;;;;;4967088;28;20338;-68
2024/03/12 08:04:03;;;;;;;;;;;;;;;;;;4965947;28;19918;-68
2024/03/12 08:06:28;;;;;;;;;;;;;;;;;;4983235;28;19921;-68
2024/03/12 08:08:54;;;;;;;;;;;;;;;;;;4974230;28;20682;-69
2024/03/12 08:11:19;;;;;;;;;;;;;;;;;;4974432;28;20500;-69
2024/03/12 08:13:47;;;;;;;;;;;;;;;;;;4978719;28;19929;-69
2024/03/12 08:16:13;;;;;;;;;;;;;;;;;;4975343;28;19917;-68
2024/03/12 08:18:41;;;;;;;;;;;;;;;;;;4973905;28;20400;-69
2024/03/12 08:21:08;;;;;;;;;;;;;;;;;;4982645;28;20363;-69
2024/03/12 08:23:34;;;;;;;;;;;;;;;;;;4972895;28;20064;-69
2024/03/12 08:26:01;;;;;;;;;;;;;;;;;;4974317;28;20514;-68
2024/03/12 08:28:26;;;;;;;;;;;;;;;;;;4977027;28;19922;-68
2024/03/12 08:30:51;;;;;;;;;;;;;;;;;;4975351;28;19972;-68
2024/03/12 08:33:18;;;;;;;;;;;;;;;;;;4981460;28;19921;-67
2024/03/12 08:35:44;;;;;;;;;;;;;;;;;;4973945;28;19917;-69
2024/03/12 08:38:09;;;;;;;;;;;;;;;;;;4965553;28;21495;-67
2024/03/12 08:40:34;;;;;;;;;;;;;;;;;;4973249;28;20299;-68
2024/03/12 08:43:00;;;;;;;;;;;;;;;;;;4965252;28;20052;-69
2024/03/12 08:45:26;;;;;;;;;;;;;;;;;;4980224;28;20056;-67
2024/03/12 08:47:52;;;;;;;;;;;;;;;;;;4981658;28;20015;-68
2024/03/12 08:50:19;;;;;;;;;;;;;;;;;;4975092;28;20468;-69
2024/03/12 08:52:46;;;;;;;;;;;;;;;;;;4975066;28;19929;-67
2024/03/12 08:55:11;;;;;;;;;;;;;;;;;;4981331;28;19918;-68
2024/03/12 08:57:36;;;;;;;;;;;;;;;;;;4973805;28;20461;-68
2024/03/12 09:00:10;;;;;;;;;;;;;;;;;;4973847;28;19943;-68
2024/03/12 09:02:39;;;;;;;;;;;;;;;;;;4975336;28;19933;-67
2024/03/12 09:05:07;;;;;;;;;;;;;;;;;;4981188;28;20289;-66
2024/03/12 09:07:32;;;;;;;;;;;;;;;;;;4982157;28;20522;-68
2024/03/12 09:10:00;;;;;;;;;;;;;;;;;;4974727;28;19989;-66
2024/03/12 09:12:27;;;;;;;;;;;;;;;;;;4974436;28;19981;-68
2024/03/12 09:14:55;;;;;;;;;;;;;;;;;;4972676;28;20492;-68
2024/03/12 09:17:20;;;;;;;;;;;;;;;;;;4980973;28;20032;-68
2024/03/12 09:19:46;;;;;;;;;;;;;;;;;;4963624;28;20382;-69
2024/03/12 09:22:12;;;;;;;;;;;;;;;;;;4972947;28;19933;-67
2024/03/12 09:24:40;;;;;;;;;;;;;;;;;;4949180;28;19918;-67
2024/03/12 09:27:05;;;;;;;;;;;;;;;;;;4975267;28;19922;-66
2024/03/12 09:29:35;;;;;;;;;;;;;;;;;;4980929;28;20449;-66
2024/03/12 09:32:03;;;;;;;;;;;;;;;;;;4981036;28;20080;-66
2024/03/12 09:34:28;;;;;;;;;;;;;;;;;;4974993;28;19922;-67
2024/03/12 09:36:54;;;;;;;;;;;;;;;;;;4972647;28;19927;-66
2024/03/12 09:39:23;;;;;;;;;;;;;;;;;;4974411;28;20212;-66
2024/03/12 09:41:48;;;;;;;;;;;;;;;;;;4973395;28;20451;-66
2024/03/12 09:44:18;;;;;;;;;;;;;;;;;;4978958;28;20354;-66
2024/03/12 09:46:45;;;;;;;;;;;;;;;;;;4981121;28;20039;-66
2024/03/12 09:49:18;;;;;;;;;;;;;;;;;;4984107;28;19917;-67
2024/03/12 09:51:43;;;;;;;;;;;;;;;;;;4985037;28;20382;-66
2024/03/12 09:54:09;;;;;;;;;;;;;;;;;;4976646;28;20111;-65
2024/03/12 09:56:37;;;;;;;;;;;;;;;;;;4977092;28;20060;-65
2024/03/12 09:59:04;;;;;;;;;;;;;;;;;;4984724;28;20282;-65
2024/03/12 10:01:38;;;;;;;;;;;;;;;;;;4984694;28;19936;-65
2024/03/12 10:04:04;;;;;;;;;;;;;;;;;;4970017;28;19921;-65
2024/03/12 10:06:29;;;;;;;;;;;;;;;;;;4985423;28;19947;-65
2024/03/12 10:08:57;;;;;;;;;;;;;;;;;;4975671;28;19926;-64
2024/03/12 10:11:25;;;;;;;;;;;;;;;;;;4969018;28;19986;-66
2024/03/12 10:13:50;;;;;;;;;;;;;;;;;;4978287;28;19924;-65
2024/03/12 10:16:18;;;;;;;;;;;;;;;;;;4979016;28;20224;-65
2024/03/12 10:18:47;;;;;;;;;;;;;;;;;;4985010;28;19921;-66
2024/03/12 10:21:12;;;;;;;;;;;;;;;;;;4968274;28;20361;-65
2024/03/12 10:23:37;;;;;;;;;;;;;;;;;;4974617;28;20683;-66
2024/03/12 10:26:02;;;;;;;;;;;;;;;;;;4976905;28;19965;-65
2024/03/12 10:28:32;;;;;;;;;;;;;;;;;;4978017;28;19957;-65
2024/03/12 10:30:58;;;;;;;;;;;;;;;;;;4982908;28;19926;-64
2024/03/12 10:33:27;;;;;;;;;;;;;;;;;;4977714;28;20584;-65
2024/03/12 10:35:53;;;;;;;;;;;;;;;;;;4984358;28;20649;-64
2024/03/12 10:38:18;;;;;;;;;;;;;;;;;;4975662;28;20004;-65
2024/03/12 10:40:47;;;;;;;;;;;;;;;;;;4985253;28;20016;-65
2024/03/12 10:43:15;;;;;;;;;;;;;;;;;;4978263;28;20009;-65
2024/03/12 10:45:44;;;;;;;;;;;;;;;;;;4982418;28;19995;-65
2024/03/12 10:51:26;;;;;;;;;;;;;;;;;;4978891;28;20523;-66
2024/03/12 10:53:53;;;;;;;;;;;;;;;;;;4982213;28;19922;-66
2024/03/12 10:56:21;;;;;;;;;;;;;;;;;;4985495;28;19929;-67
2024/03/12 10:58:47;;;;;;;;;;;;;;;;;;4976002;28;19917;-66
2024/03/12 11:01:16;;;;;;;;;;;;;;;;;;4976948;28;20016;-66
2024/03/12 11:03:41;;;;;;;;;;;;;;;;;;4982394;28;20638;-67
2024/03/12 11:06:07;;;;;;;;;;;;;;;;;;4966721;28;22138;-67
2024/03/12 11:08:32;;;;;;;;;;;;;;;;;;4965419;28;19968;-67
2024/03/12 11:10:59;;;;;;;;;;;;;;;;;;4975766;28;20364;-75
2024/03/12 11:13:27;;;;;;;;;;;;;;;;;;4983538;28;19957;-67
2024/03/12 11:15:52;;;;;;;;;;;;;;;;;;4983229;28;20028;-66
2024/03/12 11:18:17;;;;;;;;;;;;;;;;;;4976284;28;19968;-67
2024/03/12 11:20:45;;;;;;;;;;;;;;;;;;4982875;28;20456;-67
2024/03/12 11:23:16;;;;;;;;;;;;;;;;;;4974865;28;19929;-67
2024/03/12 11:25:45;;;;;;;;;;;;;;;;;;4981394;28;19922;-68
2024/03/12 11:28:13;;;;;;;;;;;;;;;;;;4974475;28;19949;-67
2024/03/12 11:30:40;;;;;;;;;;;;;;;;;;4952819;28;20459;-67
2024/03/12 11:33:08;;;;;;;;;;;;;;;;;;4976945;28;19973;-67
2024/03/12 11:35:34;;;;;;;;;;;;;;;;;;4982989;28;19929;-69
2024/03/12 11:37:59;;;;;;;;;;;;;;;;;;4967922;28;19918;-68
2024/03/12 11:40:30;;;;;;;;;;;;;;;;;;4972867;28;20382;-67
2024/03/12 11:43:01;;;;;;;;;;;;;;;;;;4975723;28;19928;-68
2024/03/12 11:45:29;;;;;;;;;;;;;;;;;;4975765;28;19917;-67
2024/03/12 11:47:59;;;;;;;;;;;;;;;;;;4981970;28;19921;-67
2024/03/12 11:50:28;;;;;;;;;;;;;;;;;;4966492;28;19925;-67
2024/03/12 11:52:53;;;;;;;;;;;;;;;;;;4980484;28;19921;-67
2024/03/12 11:55:19;;;;;;;;;;;;;;;;;;4972702;28;19928;-67
2024/03/12 11:57:47;;;;;;;;;;;;;;;;;;4981919;28;19960;-66
2024/03/12 12:00:12;;;;;;;;;;;;;;;;;;4973845;28;20044;-67
2024/03/12 12:02:39;;;;;;;;;;;;;;;;;;4974116;28;19960;-67
2024/03/12 12:05:09;;;;;;;;;;;;;;;;;;4990610;28;19918;-68
2024/03/12 12:07:36;;;;;;;;;;;;;;;;;;4973919;28;20110;-67
2024/03/12 12:10:04;;;;;;;;;;;;;;;;;;4980979;28;20403;-67
2024/03/12 12:12:33;;;;;;;;;;;;;;;;;;4982094;28;19918;-68
2024/03/12 12:15:01;;;;;;;;;;;;;;;;;;4979874;28;19929;-68
2024/03/12 12:17:31;;;;;;;;;;;;;;;;;;4967565;28;20256;-67
2024/03/12 12:19:59;;;;;;;;;;;;;;;;;;4974219;28;20448;-68
2024/03/12 12:22:28;;;;;;;;;;;;;;;;;;4964066;28;19926;-68
2024/03/12 12:24:53;;;;;;;;;;;;;;;;;;4970009;28;20298;-68
2024/03/12 12:27:18;;;;;;;;;;;;;;;;;;4971842;28;19929;-69
2024/03/12 12:29:46;;;;;;;;;;;;;;;;;;4978287;28;19926;-69
2024/03/12 12:32:14;;;;;;;;;;;;;;;;;;4972179;28;20171;-66
2024/03/12 12:34:40;;;;;;;;;;;;;;;;;;4973248;28;20113;-67
2024/03/12 12:37:09;;;;;;;;;;;;;;;;;;4972810;28;20445;-68
2024/03/12 12:39:35;;;;;;;;;;;;;;;;;;4972311;28;20004;-69
2024/03/12 12:42:01;;;;;;;;;;;;;;;;;;4972718;28;20305;-67
2024/03/12 12:44:30;;;;;;;;;;;;;;;;;;4972023;28;19934;-69
2024/03/12 12:46:55;;;;;;;;;;;;;;;;;;4972529;28;19992;-69
2024/03/12 12:49:22;;;;;;;;;;;;;;;;;;4972826;28;19972;-67
2024/03/12 12:51:49;;;;;;;;;;;;;;;;;;4973298;28;20285;-69
2024/03/12 12:54:15;;;;;;;;;;;;;;;;;;4979128;28;20039;-68
2024/03/12 12:56:41;;;;;;;;;;;;;;;;;;4972937;28;20013;-68
2024/03/12 12:59:06;;;;;;;;;;;;;;;;;;4971710;28;20087;-69
2024/03/12 13:01:32;;;;;;;;;;;;;;;;;;4972136;28;19933;-69
2024/03/12 13:03:58;;;;;;;;;;;;;;;;;;4973528;28;20373;-67
2024/03/12 13:06:26;;;;;;;;;;;;;;;;;;4973984;28;20322;-68
2024/03/12 13:08:52;;;;;;;;;;;;;;;;;;4980300;28;19976;-69
2024/03/12 13:11:18;;;;;;;;;;;;;;;;;;4974578;28;19988;-69
2024/03/12 13:13:47;;;;;;;;;;;;;;;;;;4964191;28;19925;-68
2024/03/12 13:16:15;;;;;;;;;;;;;;;;;;4973495;28;19925;-69
2024/03/12 13:18:41;;;;;;;;;;;;;;;;;;4988887;28;19925;-69
2024/03/12 13:21:07;;;;;;;;;;;;;;;;;;4964654;28;19961;-68
2024/03/12 13:23:32;;;;;;;;;;;;;;;;;;4979513;28;19949;-69
2024/03/12 13:26:01;;;;;;;;;;;;;;;;;;4965958;28;19918;-69
2024/03/12 13:28:26;;;;;;;;;;;;;;;;;;4981462;28;19928;-69
2024/03/12 13:30:51;;;;;;;;;;;;;;;;;;4958999;28;19921;-70
2024/03/12 13:33:20;;;;;;;;;;;;;;;;;;4981470;28;19917;-70
2024/03/12 13:35:50;;;;;;;;;;;;;;;;;;4980906;28;20015;-70
2024/03/12 13:38:21;;;;;;;;;;;;;;;;;;4964635;28;20293;-68
2024/03/12 13:40:47;;;;;;;;;;;;;;;;;;4971920;28;19933;-70
2024/03/12 13:43:16;;;;;;;;;;;;;;;;;;4974951;28;20501;-69
2024/03/12 13:45:48;;;;;;;;;;;;;;;;;;4979058;28;19918;-68
2024/03/12 13:48:16;;;;;;;;;;;;;;;;;;4979693;28;20386;-68
2024/03/12 13:50:47;;;;;;;;;;;;;;;;;;4974647;28;19922;-68
2024/03/12 13:53:12;;;;;;;;;;;;;;;;;;4980980;28;19917;-68
2024/03/12 13:55:37;;;;;;;;;;;;;;;;;;4980900;28;19917;-68
2024/03/12 13:58:05;;;;;;;;;;;;;;;;;;4966871;28;19928;-68
2024/03/12 14:00:36;;;;;;;;;;;;;;;;;;4980596;28;19992;-67
2024/03/12 14:03:03;;;;;;;;;;;;;;;;;;4973495;28;20016;-68
2024/03/12 14:05:31;;;;;;;;;;;;;;;;;;4973997;28;19917;-69
2024/03/12 14:07:59;;;;;;;;;;;;;;;;;;4974373;28;20500;-68
2024/03/12 14:10:27;;;;;;;;;;;;;;;;;;4980256;28;19925;-68
2024/03/12 14:12:55;;;;;;;;;;;;;;;;;;4981048;28;20320;-68
2024/03/12 14:15:23;;;;;;;;;;;;;;;;;;4963269;28;19924;-68
2024/03/12 14:17:48;;;;;;;;;;;;;;;;;;4972618;28;20028;-68
2024/03/12 14:20:14;;;;;;;;;;;;;;;;;;4964511;28;19929;-68
2024/03/12 14:25:56;;;;;;;;;;;;;;;;;;4974779;28;19925;-68
2024/03/12 14:28:26;;;;;;;;;;;;;;;;;;4981999;28;19964;-68
2024/03/12 14:30:55;;;;;;;;;;;;;;;;;;4978436;28;19918;-69
2024/03/12 14:33:20;;;;;;;;;;;;;;;;;;4986541;28;19952;-68
2024/03/12 14:36:07;;;;;;;;;;;;;;;;;;4976026;28;19922;-68
2024/03/12 14:41:50;;;;;;;;;;;;;;;;;;4974316;28;20376;-68
2024/03/12 14:44:21;;;;;;;;;;;;;;;;;;4982790;28;20279;-68
2024/03/12 14:46:46;;;;;;;;;;;;;;;;;;4976647;28;19921;-69
2024/03/12 14:49:12;;;;;;;;;;;;;;;;;;4983387;28;20499;-69
2024/03/12 14:51:39;;;;;;;;;;;;;;;;;;4978474;28;19922;-69
2024/03/12 14:54:04;;;;;;;;;;;;;;;;;;4976904;28;19917;-68
2024/03/12 14:56:29;;;;;;;;;;;;;;;;;;4978161;28;19925;-70
2024/03/12 14:58:55;;;;;;;;;;;;;;;;;;4983717;28;20459;-69
2024/03/12 15:01:23;;;;;;;;;;;;;;;;;;4992752;28;20309;-68
2024/03/12 15:03:48;;;;;;;;;;;;;;;;;;4975921;28;20496;-69
2024/03/12 15:06:18;;;;;;;;;;;;;;;;;;4983455;28;20349;-69
2024/03/12 15:08:44;;;;;;;;;;;;;;;;;;4975064;28;20320;-69
2024/03/12 15:11:12;;;;;;;;;;;;;;;;;;4976184;28;19922;-68
2024/03/12 15:13:43;;;;;;;;;;;;;;;;;;4982799;28;19917;-68
2024/03/12 15:16:08;;;;;;;;;;;;;;;;;;4968261;28;19921;-69
2024/03/12 15:18:33;;;;;;;;;;;;;;;;;;4967043;28;19924;-68
2024/03/12 15:20:59;;;;;;;;;;;;;;;;;;4975154;28;20004;-69
2024/03/12 15:23:24;;;;;;;;;;;;;;;;;;4975989;28;19918;-69
2024/03/12 15:25:49;;;;;;;;;;;;;;;;;;4975360;28;20334;-69
2024/03/12 15:28:15;;;;;;;;;;;;;;;;;;4982903;28;20009;-69
2024/03/12 15:30:41;;;;;;;;;;;;;;;;;;4974926;28;19925;-70
2024/03/12 15:33:09;;;;;;;;;;;;;;;;;;4967052;28;20027;-69
2024/03/12 15:35:40;;;;;;;;;;;;;;;;;;4977427;28;19918;-69
2024/03/12 15:38:05;;;;;;;;;;;;;;;;;;4976842;28;19918;-69
2024/03/12 15:40:30;;;;;;;;;;;;;;;;;;4980858;28;19922;-69
2024/03/12 15:42:56;;;;;;;;;;;;;;;;;;4978158;28;19955;-68
2024/03/12 15:45:21;;;;;;;;;;;;;;;;;;4979747;28;20023;-67
2024/03/12 15:47:47;;;;;;;;;;;;;;;;;;4976051;28;20125;-67
2024/03/12 15:50:15;;;;;;;;;;;;;;;;;;4979332;28;19929;-67
2024/03/12 15:52:43;;;;;;;;;;;;;;;;;;4978427;28;19918;-67
2024/03/12 15:55:09;;;;;;;;;;;;;;;;;;4975338;28;19978;-67
2024/03/12 15:57:35;;;;;;;;;;;;;;;;;;4975172;28;19917;-68
2024/03/12 16:00:04;;;;;;;;;;;;;;;;;;4972742;28;19975;-67
2024/03/12 16:02:29;;;;;;;;;;;;;;;;;;4962902;28;19926;-68
2024/03/12 16:04:55;;;;;;;;;;;;;;;;;;4975842;28;20044;-68
2024/03/12 16:07:23;;;;;;;;;;;;;;;;;;4970665;28;19918;-68
2024/03/12 16:09:48;;;;;;;;;;;;;;;;;;4972521;28;19918;-68
2024/03/12 16:12:14;;;;;;;;;;;;;;;;;;4963450;28;20570;-67
2024/03/12 16:14:39;;;;;;;;;;;;;;;;;;4973384;28;20013;-68
2024/03/12 16:17:06;;;;;;;;;;;;;;;;;;4981493;28;19929;-68
2024/03/12 16:19:31;;;;;;;;;;;;;;;;;;4974090;28;19917;-68
2024/03/12 16:21:57;;;;;;;;;;;;;;;;;;4971795;28;20310;-69
2024/03/12 16:24:22;;;;;;;;;;;;;;;;;;4970290;28;20626;-69
2024/03/12 16:26:47;;;;;;;;;;;;;;;;;;4981692;28;20015;-68
2024/03/12 16:29:13;;;;;;;;;;;;;;;;;;4972653;28;20530;-68
2024/03/12 16:31:38;;;;;;;;;;;;;;;;;;4979272;28;19922;-68
2024/03/12 16:34:04;;;;;;;;;;;;;;;;;;4980148;28;20116;-68
2024/03/12 16:36:29;;;;;;;;;;;;;;;;;;4972233;28;19918;-68
2024/03/12 16:38:56;;;;;;;;;;;;;;;;;;4978690;28;19922;-69
2024/03/12 16:41:21;;;;;;;;;;;;;;;;;;4971685;28;19926;-68
2024/03/12 16:43:47;;;;;;;;;;;;;;;;;;4971827;28;19983;-68
2024/03/12 16:46:12;;;;;;;;;;;;;;;;;;4970597;28;19922;-68
2024/03/12 16:48:38;;;;;;;;;;;;;;;;;;4980533;28;20393;-68
2024/03/12 16:51:03;;;;;;;;;;;;;;;;;;4974337;28;20321;-69
2024/03/12 16:53:31;;;;;;;;;;;;;;;;;;4978422;28;20708;-68
2024/03/12 16:55:57;;;;;;;;;;;;;;;;;;4962433;28;19922;-67
2024/03/12 16:58:22;;;;;;;;;;;;;;;;;;4978549;28;19929;-69
2024/03/12 17:00:48;;;;;;;;;;;;;;;;;;4974775;28;19917;-69
2024/03/12 17:03:16;;;;;;;;;;;;;;;;;;4972536;28;21570;-69
2024/03/12 17:05:42;;;;;;;;;;;;;;;;;;4976170;28;19922;-68
2024/03/12 17:08:07;;;;;;;;;;;;;;;;;;4972088;28;20280;-68
2024/03/12 17:10:33;;;;;;;;;;;;;;;;;;4981748;28;20021;-68
2024/03/12 17:12:58;;;;;;;;;;;;;;;;;;4968967;28;20068;-67
2024/03/12 17:15:24;;;;;;;;;;;;;;;;;;4973412;28;19922;-67
2024/03/12 17:17:49;;;;;;;;;;;;;;;;;;4975486;28;21467;-68